Time;durP1;ratioP1;P1;durP2;ratioP2;P2;SDS_P1;SDS_P2;PMS_P1;PMS_P2;Temp;Humidity;BMP_temperature;BMP_pressure;BME280_temperature;BME280_humidity;BME280_pressure;Samples;Min_cycle;Max_cycle;Signal;HPM_P1;HPM_P2
2023/08/25 00:00:57;;;;;;;11.18;4.25;;;;;;;25.40;62.42;94500.75;4939053;29;20475;-85
2023/08/25 00:03:23;;;;;;;10.10;4.53;;;;;;;25.39;62.30;94497.28;4957974;28;20035;-85
2023/08/25 00:05:52;;;;;;;12.52;4.43;;;;;;;25.11;64.91;94495.69;4942306;29;20027;-86
2023/08/25 00:08:17;;;;;;;12.43;5.18;;;;;;;24.91;65.96;94494.97;4960035;29;20125;-85
2023/08/25 00:10:42;;;;;;;7.75;4.45;;;;;;;24.98;65.26;94481.72;4942364;29;20126;-85
2023/08/25 00:13:08;;;;;;;7.05;4.47;;;;;;;25.20;62.81;94487.41;4926678;29;20031;-86
2023/08/25 00:15:33;;;;;;;8.50;4.68;;;;;;;25.44;61.64;94496.22;4942332;29;20047;-85
2023/08/25 00:17:59;;;;;;;8.98;4.43;;;;;;;25.49;61.87;94490.56;4959295;29;20050;-85
2023/08/25 00:20:25;;;;;;;8.05;4.03;;;;;;;25.60;59.87;94495.31;4942307;29;20074;-85
2023/08/25 00:22:51;;;;;;;8.38;4.43;;;;;;;25.70;59.99;94486.66;4942615;29;20118;-85
2023/08/25 00:25:19;;;;;;;9.82;4.25;;;;;;;25.64;59.62;94490.78;4942390;29;20155;-85
2023/08/25 00:27:45;;;;;;;12.75;4.47;;;;;;;25.32;62.47;94489.16;4959520;29;20302;-85
2023/08/25 00:30:11;;;;;;;8.10;4.72;;;;;;;24.99;64.56;94487.81;4942374;29;20363;-85
2023/08/25 00:32:40;;;;;;;9.38;4.00;;;;;;;25.01;64.91;94490.91;4959352;29;20039;-85
2023/08/25 00:35:06;;;;;;;8.75;4.43;;;;;;;25.20;62.53;94482.03;4942350;29;20122;-85
2023/08/25 00:37:32;;;;;;;12.15;4.75;;;;;;;25.34;61.34;94483.41;4959345;29;20082;-85
2023/08/25 00:39:57;;;;;;;9.85;4.47;;;;;;;25.45;60.03;94481.66;4942096;29;20047;-85
2023/08/25 00:42:23;;;;;;;11.02;4.53;;;;;;;25.72;58.75;94480.91;4942147;29;20082;-86
2023/08/25 00:44:48;;;;;;;9.50;4.45;;;;;;;25.93;57.65;94485.81;4941686;29;20437;-85
2023/08/25 00:47:14;;;;;;;11.05;4.97;;;;;;;25.88;58.21;94480.75;4959135;29;20508;-85
2023/08/25 00:49:39;;;;;;;7.78;3.90;;;;;;;25.81;58.15;94478.75;4941707;29;20046;-85
2023/08/25 00:52:05;;;;;;;9.18;4.45;;;;;;;25.72;58.44;94479.03;4941551;29;20078;-85
2023/08/25 00:54:34;;;;;;;9.43;5.03;;;;;;;25.63;60.95;94487.34;4941814;29;20445;-85
2023/08/25 00:57:00;;;;;;;8.70;4.45;;;;;;;25.49;61.61;94487.88;4942134;29;20038;-84
2023/08/25 00:59:26;;;;;;;13.70;4.68;;;;;;;25.26;61.52;94485.19;4941727;29;20378;-86
2023/08/25 01:01:51;;;;;;;12.88;4.68;;;;;;;25.18;61.73;94481.63;4941819;29;20046;-84
2023/08/25 01:04:16;;;;;;;12.15;4.82;;;;;;;25.39;60.17;94477.72;4958722;29;20131;-84
2023/08/25 01:06:42;;;;;;;8.02;3.92;;;;;;;25.36;60.72;94479.25;4941266;29;20050;-84
2023/08/25 01:09:08;;;;;;;10.63;5.07;;;;;;;25.33;60.88;94490.69;4940967;29;20043;-86
2023/08/25 01:11:46;;;;;;;14.38;4.53;;;;;;;25.18;62.11;94486.22;4958142;29;20157;-85
2023/08/25 01:14:26;;;;;;;11.48;4.43;;;;;;;25.29;61.18;94489.09;4957396;28;20094;-85
2023/08/25 01:16:59;;;;;;;9.70;4.20;;;;;;;25.25;61.62;94494.38;4955972;29;20051;-85
2023/08/25 01:19:31;;;;;;;9.63;4.23;;;;;;;25.22;61.60;94487.06;4909946;29;20036;-84
2023/08/25 01:21:58;;;;;;;9.00;4.00;;;;;;;25.11;61.61;94484.97;4958214;29;20042;-85
2023/08/25 01:24:28;;;;;;;8.25;4.28;;;;;;;25.21;60.78;94483.59;4941430;29;20448;-85
2023/08/25 01:26:54;;;;;;;9.65;3.83;;;;;;;25.24;60.88;94490.91;4925166;29;20437;-85
2023/08/25 01:29:19;;;;;;;8.82;4.68;;;;;;;24.89;63.10;94483.03;4941096;29;20050;-85
2023/08/25 01:31:45;;;;;;;12.77;4.72;;;;;;;25.03;61.58;94487.88;4940931;29;20082;-84
2023/08/25 01:34:13;;;;;;;12.07;4.07;;;;;;;25.24;59.01;94492.84;4941271;29;20452;-85
2023/08/25 01:37:04;;;;;;;10.60;4.57;;;;;;;25.41;58.13;94489.66;4941435;29;20365;-85
2023/08/25 01:39:31;;;;;;;10.65;4.20;;;;;;;25.50;57.64;94488.66;4941052;29;20097;-84
2023/08/25 01:42:00;;;;;;;15.90;4.78;;;;;;;25.69;56.21;94482.44;4941056;29;20408;-84
2023/08/25 01:44:30;;;;;;;13.55;4.57;;;;;;;25.81;55.69;94482.19;4941012;29;20441;-85
2023/08/25 01:47:00;;;;;;;9.30;4.55;;;;;;;25.88;54.96;94478.84;4925326;29;20066;-85
2023/08/25 01:49:27;;;;;;;13.50;4.78;;;;;;;25.98;56.45;94485.50;4941201;29;20050;-85
2023/08/25 01:51:53;;;;;;;14.23;4.85;;;;;;;25.66;56.07;94475.09;4940840;29;20039;-85
2023/08/25 01:54:19;;;;;;;12.07;4.20;;;;;;;25.42;59.50;94479.72;4940533;29;20445;-85
2023/08/25 01:56:46;;;;;;;10.60;4.30;;;;;;;25.47;59.88;94475.97;4940433;29;20121;-85
2023/08/25 01:59:12;;;;;;;19.70;4.50;;;;;;;24.74;62.69;94482.00;4940741;29;20043;-86
2023/08/25 02:01:38;;;;;;;11.98;4.47;;;;;;;24.33;65.59;94479.72;4940748;29;20050;-85
2023/08/25 02:04:03;;;;;;;7.60;4.50;;;;;;;24.12;67.09;94472.81;4940494;29;20070;-85
2023/08/25 02:06:29;;;;;;;10.48;4.53;;;;;;;23.99;69.88;94472.16;4940665;29;20046;-85
2023/08/25 02:08:54;;;;;;;13.00;4.25;;;;;;;23.94;69.61;94475.88;4940421;29;20046;-85
2023/08/25 02:11:20;;;;;;;12.25;4.13;;;;;;;24.01;68.77;94477.94;4957388;29;20039;-86
2023/08/25 02:13:45;;;;;;;9.48;4.10;;;;;;;24.21;66.45;94475.28;4940279;29;20043;-85
2023/08/25 02:16:10;;;;;;;11.82;5.10;;;;;;;24.26;66.56;94475.78;4940422;29;20047;-85
2023/08/25 02:18:37;;;;;;;13.70;4.57;;;;;;;24.21;67.33;94475.28;4957563;29;20043;-86
2023/08/25 02:21:02;;;;;;;11.63;4.18;;;;;;;24.23;68.00;94476.47;4940102;29;20031;-85
2023/08/25 02:23:28;;;;;;;14.48;4.53;;;;;;;24.03;70.13;94481.06;4957070;29;20508;-85
2023/08/25 02:25:53;;;;;;;10.18;4.68;;;;;;;24.10;68.90;94478.53;4957205;28;20046;-85
2023/08/25 02:28:18;;;;;;;12.93;4.80;;;;;;;23.99;69.07;94474.81;4957580;29;20404;-85
2023/08/25 02:30:44;;;;;;;19.80;4.75;;;;;;;23.97;69.83;94480.50;4957347;29;20047;-85
2023/08/25 02:33:09;;;;;;;11.77;4.65;;;;;;;24.03;69.61;94470.34;4924208;29;20042;-86
2023/08/25 02:35:35;;;;;;;14.68;4.50;;;;;;;24.01;69.47;94473.34;4940098;29;20106;-85
2023/08/25 02:38:10;;;;;;;15.05;4.22;;;;;;;24.07;68.81;94475.78;4939768;29;20043;-85
2023/08/25 02:40:37;;;;;;;11.32;4.50;;;;;;;23.95;69.66;94476.63;4924237;29;20133;-86
2023/08/25 02:43:06;;;;;;;9.23;4.28;;;;;;;24.00;69.29;94471.03;4940093;29;20035;-86
2023/08/25 02:45:33;;;;;;;9.00;4.18;;;;;;;23.99;69.27;94477.50;4939971;29;20142;-85
2023/08/25 02:47:58;;;;;;;7.15;4.05;;;;;;;24.27;67.67;94471.97;4939367;29;20397;-85
2023/08/25 02:50:24;;;;;;;11.43;3.88;;;;;;;24.19;67.70;94472.19;4923788;29;20042;-85
2023/08/25 02:52:50;;;;;;;12.60;4.45;;;;;;;24.12;67.31;94475.50;4939859;29;20118;-85
2023/08/25 02:55:18;;;;;;;11.65;4.93;;;;;;;24.52;63.17;94473.56;4939514;29;20130;-85
2023/08/25 02:57:43;;;;;;;12.23;4.50;;;;;;;24.28;66.02;94462.03;4939791;29;20038;-85
2023/08/25 03:00:10;;;;;;;9.70;4.38;;;;;;;24.39;66.52;94463.03;4939959;29;20031;-85
2023/08/25 03:02:35;;;;;;;15.55;3.88;;;;;;;24.71;62.19;94467.41;4939775;29;20043;-85
2023/08/25 03:05:00;;;;;;;13.38;4.60;;;;;;;25.02;60.43;94462.22;4956740;29;20110;-85
2023/08/25 03:07:26;;;;;;;9.45;4.28;;;;;;;25.26;59.25;94456.50;4939428;29;20035;-85
2023/08/25 03:09:51;;;;;;;9.23;3.95;;;;;;;25.51;57.74;94452.66;4939430;29;20038;-86
2023/08/25 03:12:17;;;;;;;17.08;5.00;;;;;;;25.63;57.46;94457.81;4939165;29;20030;-85
2023/08/25 03:14:42;;;;;;;11.20;4.43;;;;;;;25.69;56.93;94460.97;4956675;29;20043;-85
2023/08/25 03:17:09;;;;;;;10.45;4.22;;;;;;;25.56;57.38;94457.72;4923336;29;20042;-85
2023/08/25 03:19:37;;;;;;;10.82;3.97;;;;;;;25.52;57.36;94456.88;4939241;29;20069;-86
2023/08/25 03:22:02;;;;;;;8.68;4.00;;;;;;;25.53;57.16;94448.47;4956421;29;20121;-85
2023/08/25 03:24:28;;;;;;;14.45;4.35;;;;;;;25.49;57.38;94450.34;4938969;29;20521;-85
2023/08/25 03:26:53;;;;;;;13.30;4.50;;;;;;;25.62;56.51;94455.50;4939010;29;20038;-85
2023/08/25 03:29:19;;;;;;;11.57;3.80;;;;;;;25.60;56.55;94452.41;4941769;29;20356;-85
2023/08/25 03:31:44;;;;;;;12.05;4.93;;;;;;;25.67;56.37;94449.81;4958667;29;20027;-85
2023/08/25 03:34:09;;;;;;;11.70;4.28;;;;;;;25.72;55.68;94454.88;4925876;29;20134;-84
2023/08/25 03:36:35;;;;;;;13.50;4.82;;;;;;;25.81;55.61;94454.59;4941219;29;20089;-84
2023/08/25 03:39:00;;;;;;;12.05;4.40;;;;;;;25.73;55.80;94451.06;4957959;29;20342;-85
2023/08/25 03:41:25;;;;;;;10.75;4.88;;;;;;;25.73;55.39;94453.75;4958599;29;20039;-84
2023/08/25 03:43:51;;;;;;;13.73;4.45;;;;;;;25.74;55.31;94449.91;4941408;29;20093;-84
2023/08/25 03:46:16;;;;;;;18.17;4.00;;;;;;;25.83;54.97;94446.97;4958534;29;20039;-84
2023/08/25 03:48:41;;;;;;;14.98;4.75;;;;;;;25.90;54.47;94446.28;4958300;29;20031;-84
2023/08/25 03:51:07;;;;;;;12.02;4.15;;;;;;;25.89;54.17;94452.78;4958689;29;20077;-84
2023/08/25 03:53:35;;;;;;;11.13;4.13;;;;;;;25.94;54.24;94452.47;4941316;29;20061;-85
2023/08/25 03:56:00;;;;;;;13.93;4.47;;;;;;;25.78;54.70;94445.34;4941442;29;20039;-85
2023/08/25 03:58:26;;;;;;;12.98;4.13;;;;;;;25.75;54.83;94448.78;4935348;29;20107;-85
2023/08/25 04:00:54;;;;;;;14.10;4.03;;;;;;;25.71;55.22;94444.50;4939320;29;20031;-85
2023/08/25 04:03:19;;;;;;;13.13;4.32;;;;;;;25.65;55.26;94442.13;4939479;29;20118;-85
2023/08/25 04:05:48;;;;;;;11.10;4.15;;;;;;;25.62;55.14;94447.44;4906638;29;20055;-85
2023/08/25 04:08:14;;;;;;;16.85;4.82;;;;;;;25.72;54.63;94452.19;4922031;29;20039;-85
2023/08/25 04:10:43;;;;;;;13.40;4.22;;;;;;;25.74;54.49;94449.91;4922157;29;20326;-84
2023/08/25 04:13:09;;;;;;;13.05;4.50;;;;;;;25.60;58.37;94445.13;4922211;29;20059;-85
2023/08/25 04:15:35;;;;;;;14.73;4.40;;;;;;;24.86;61.84;94455.09;4922276;29;20023;-84
2023/08/25 04:18:01;;;;;;;14.85;4.22;;;;;;;24.49;63.47;94452.84;4922278;29;20059;-85
2023/08/25 04:20:26;;;;;;;13.15;4.47;;;;;;;24.20;65.37;94457.66;4951161;29;20404;-84
2023/08/25 04:22:51;;;;;;;15.57;4.80;;;;;;;24.00;66.58;94453.06;4941400;29;20035;-84
2023/08/25 04:25:17;;;;;;;19.23;4.53;;;;;;;23.91;67.01;94463.19;4925131;29;20082;-85
2023/08/25 04:27:42;;;;;;;12.05;4.35;;;;;;;23.91;67.36;94457.84;4941265;29;20451;-85
2023/08/25 04:30:08;;;;;;;12.05;4.32;;;;;;;23.84;67.98;94455.81;4941308;29;20511;-84
2023/08/25 04:32:34;;;;;;;16.75;4.13;;;;;;;23.79;68.91;94449.94;4958620;29;20031;-84
2023/08/25 04:34:59;;;;;;;17.90;4.50;;;;;;;23.86;68.18;94447.41;4941247;29;20059;-85
2023/08/25 04:37:24;;;;;;;13.60;4.57;;;;;;;23.81;68.68;94453.81;4940763;29;20035;-85
2023/08/25 04:39:50;;;;;;;8.95;4.15;;;;;;;23.73;70.54;94452.13;4922159;29;20038;-86
2023/08/25 04:42:15;;;;;;;13.18;4.45;;;;;;;23.80;69.60;94457.59;4922270;29;20043;-84
2023/08/25 04:44:41;;;;;;;9.07;4.03;;;;;;;23.69;70.55;94453.94;4922170;29;20037;-84
2023/08/25 04:47:07;;;;;;;9.95;4.45;;;;;;;23.78;70.13;94451.84;4921723;29;20032;-84
2023/08/25 04:49:33;;;;;;;16.23;5.30;;;;;;;23.75;70.69;94457.88;4941263;29;20373;-83
2023/08/25 04:51:59;;;;;;;12.73;4.10;;;;;;;23.57;72.10;94455.59;4928813;29;20046;-84
2023/08/25 04:54:24;;;;;;;12.02;4.15;;;;;;;23.51;75.12;94459.66;4942607;29;20039;-84
2023/08/25 04:56:49;;;;;;;7.72;4.28;;;;;;;23.63;73.59;94450.75;4942450;29;20093;-84
2023/08/25 04:59:15;;;;;;;18.13;4.40;;;;;;;23.80;73.31;94459.53;4940961;29;20059;-84
2023/08/25 05:01:40;;;;;;;12.10;4.18;;;;;;;23.75;73.65;94463.25;4942417;29;20042;-84
2023/08/25 05:04:06;;;;;;;11.35;4.63;;;;;;;23.84;73.38;94463.81;4941268;29;20043;-84
2023/08/25 05:06:31;;;;;;;12.18;4.30;;;;;;;23.66;73.65;94463.44;4942247;29;20106;-84
2023/08/25 05:08:56;;;;;;;11.82;4.13;;;;;;;23.98;73.03;94459.91;4941956;29;20327;-84
2023/08/25 05:11:22;;;;;;;13.50;4.80;;;;;;;24.03;70.57;94462.31;4940792;29;20040;-84
2023/08/25 05:13:47;;;;;;;15.23;4.40;;;;;;;24.22;68.33;94455.41;4940808;29;20036;-84
2023/08/25 05:16:15;;;;;;;9.77;4.20;;;;;;;24.35;67.92;94450.69;4940711;29;20122;-84
2023/08/25 05:18:40;;;;;;;11.02;4.20;;;;;;;24.52;68.24;94455.59;4951899;29;20031;-84
2023/08/25 05:21:06;;;;;;;7.25;3.90;;;;;;;24.40;72.78;94459.22;4961445;29;20038;-84
2023/08/25 05:23:31;;;;;;;12.60;4.20;;;;;;;24.43;74.33;94461.19;4961099;29;20401;-84
2023/08/25 05:25:57;;;;;;;13.20;4.20;;;;;;;24.30;74.85;94449.09;4928134;29;20034;-84
2023/08/25 05:28:22;;;;;;;6.97;3.88;;;;;;;24.56;75.41;94461.78;4959804;29;20067;-84
2023/08/25 05:30:48;;;;;;;8.77;4.25;;;;;;;24.57;76.37;94459.91;4943206;29;20038;-88
2023/08/25 05:33:14;;;;;;;12.65;4.13;;;;;;;24.63;80.52;94465.75;4928593;29;20023;-88
2023/08/25 05:35:40;;;;;;;9.40;4.05;;;;;;;24.79;78.51;94455.72;4944208;29;20026;-87
2023/08/25 05:38:05;;;;;;;15.48;4.45;;;;;;;24.96;77.03;94461.75;4943586;29;20492;-87
2023/08/25 05:40:31;;;;;;;15.75;4.68;;;;;;;24.92;78.03;94461.69;4943791;29;20031;-87
2023/08/25 05:42:56;;;;;;;7.93;4.22;;;;;;;24.93;76.45;94462.47;4943941;29;20054;-87
2023/08/25 05:45:22;;;;;;;13.30;4.25;;;;;;;25.09;77.96;94462.31;4943968;29;20023;-87
2023/08/25 05:47:47;;;;;;;13.13;4.75;;;;;;;25.03;79.91;94461.09;4943441;29;20101;-87
2023/08/25 05:50:13;;;;;;;13.15;4.32;;;;;;;25.15;78.36;94455.56;4943878;29;20027;-87
2023/08/25 05:52:41;;;;;;;15.75;4.32;;;;;;;25.23;79.88;94461.78;4943644;29;20048;-87
2023/08/25 05:55:07;;;;;;;14.85;4.70;;;;;;;24.99;82.31;94464.50;4943857;29;20027;-89
2023/08/25 05:57:33;;;;;;;12.45;4.00;;;;;;;25.29;84.06;94459.59;4943727;29;20042;-88
2023/08/25 05:59:58;;;;;;;14.15;4.13;;;;;;;25.46;81.18;94461.75;4942731;29;20031;-89
2023/08/25 06:02:24;;;;;;;10.70;4.35;;;;;;;25.67;81.97;94463.22;4927263;29;20031;-88
2023/08/25 06:04:49;;;;;;;9.38;4.20;;;;;;;25.85;82.23;94465.41;4936114;29;20043;-88
2023/08/25 06:07:14;;;;;;;12.10;4.88;;;;;;;25.70;82.63;94467.88;4927471;29;20027;-88
2023/08/25 06:09:40;;;;;;;9.38;4.07;;;;;;;25.98;79.84;94464.03;4943245;29;20106;-88
2023/08/25 06:12:06;;;;;;;10.23;4.53;;;;;;;26.03;79.43;94469.06;4943351;29;20035;-88
2023/08/25 06:14:32;;;;;;;12.40;4.03;;;;;;;26.10;77.33;94466.47;4943493;29;20133;-88
2023/08/25 06:17:01;;;;;;;13.45;4.80;;;;;;;26.21;75.58;94471.22;4943418;29;20114;-88
2023/08/25 06:20:04;;;;;;;;;;;;;;;;;;;;;
2023/08/25 06:23:11;;;;;;;;;;;;;;;;;;;;;
2023/08/25 06:26:06;;;;;;;10.95;3.65;;;;;;;25.94;88.52;94471.25;4937389;29;20030;-89
2023/08/25 06:28:39;;;;;;;11.23;4.50;;;;;;;25.89;93.41;94471.56;4943139;29;20035;-88
2023/08/25 06:31:33;;;;;;;;;;;;;;;25.75;93.79;94472.94;4927864;29;20038;-89
2023/08/25 06:34:12;;;;;;;;;;;;;;;;;;;;;
2023/08/25 06:36:40;;;;;;;12.70;4.35;;;;;;;26.60;84.47;94470.91;4944469;29;20045;-89
2023/08/25 06:39:07;;;;;;;12.32;3.70;;;;;;;26.81;81.63;94475.72;4942999;29;20046;-89
2023/08/25 06:41:33;;;;;;;9.90;3.95;;;;;;;26.86;77.29;94471.13;4943140;29;20035;-89
2023/08/25 06:44:15;;;;;;;;;;;;;;;;;;;;;
2023/08/25 06:46:54;;;;;;;10.68;4.05;;;;;;;27.08;81.32;94474.81;4943761;29;20037;-89
2023/08/25 06:49:21;;;;;;;10.85;4.40;;;;;;;27.31;83.40;94468.47;4943082;29;20030;-89
2023/08/25 06:51:49;;;;;;;11.27;4.03;;;;;;;27.32;80.35;94483.47;4939190;29;20059;-89
2023/08/25 06:54:24;;;;;;;;;;;;;;;;;;;;;
2023/08/25 06:56:50;;;;;;;13.20;4.38;;;;;;;27.37;87.12;94483.13;4940118;29;20441;-88
2023/08/25 06:59:16;;;;;;;8.30;4.03;;;;;;;27.31;97.35;94485.38;4939135;29;20139;-88
2023/08/25 07:01:41;;;;;;;9.90;4.07;;;;;;;27.61;94.59;94483.72;4923962;29;20481;-88
2023/08/25 07:04:07;;;;;;;10.65;4.53;;;;;;;27.63;87.85;94486.78;4923352;29;20043;-88
2023/08/25 07:06:32;;;;;;;13.80;4.47;;;;;;;27.54;84.44;94480.94;4940176;29;20035;-88
2023/08/25 07:08:58;;;;;;;10.73;3.90;;;;;;;27.41;95.37;94483.94;4940228;29;20083;-88
2023/08/25 07:11:26;;;;;;;14.05;5.07;;;;;;;27.17;99.86;94485.25;4907432;29;20047;-88
2023/08/25 07:13:51;;;;;;;15.77;4.00;;;;;;;27.40;93.84;94476.97;4924050;29;20047;-88
2023/08/25 07:16:26;;;;;;;9.93;4.43;;;;;;;27.77;87.41;94480.75;4922983;29;20039;-89
2023/08/25 07:18:51;;;;;;;12.10;4.22;;;;;;;27.87;83.14;94479.25;4923325;29;20090;-88
2023/08/25 07:21:16;;;;;;;10.30;3.75;;;;;;;27.81;80.52;94481.53;4923328;29;20456;-88
2023/08/25 07:23:42;;;;;;;9.25;4.03;;;;;;;27.96;82.25;94481.59;4922941;29;20115;-87
2023/08/25 07:26:08;;;;;;;13.93;4.60;;;;;;;27.89;81.95;94480.41;4923333;29;20044;-88
2023/08/25 07:28:34;;;;;;;12.73;4.93;;;;;;;27.71;78.05;94480.31;4923021;29;20028;-88
2023/08/25 07:30:59;;;;;;;15.18;4.68;;;;;;;28.21;80.29;94474.44;4922558;29;20335;-89
2023/08/25 07:33:26;;;;;;;8.98;4.18;;;;;;;28.49;79.26;94480.31;4907312;29;20066;-87
2023/08/25 07:35:51;;;;;;;11.65;4.25;;;;;;;28.49;78.91;94481.09;4922929;29;20040;-87
2023/08/25 07:38:17;;;;;;;9.20;4.00;;;;;;;28.53;86.02;94489.16;4922953;29;20039;-86
2023/08/25 07:40:42;;;;;;;16.73;4.88;;;;;;;28.60;97.22;94486.50;4939324;29;20132;-87
2023/08/25 07:43:08;;;;;;;10.20;4.72;;;;;;;28.66;97.04;94489.59;4922825;29;20031;-85
2023/08/25 07:45:36;;;;;;;10.00;4.88;;;;;;;28.71;96.79;94494.63;4922780;29;20058;-85
2023/08/25 07:48:02;;;;;;;11.48;4.35;;;;;;;28.79;81.61;94485.41;4922440;29;20039;-85
2023/08/25 07:50:28;;;;;;;20.42;4.55;;;;;;;28.85;76.16;94493.91;4906745;29;20035;-84
2023/08/25 07:52:53;;;;;;;12.75;4.05;;;;;;;28.88;74.93;94492.34;4922676;29;20041;-85
2023/08/25 07:55:19;;;;;;;12.77;4.38;;;;;;;29.09;74.54;94491.63;4922318;29;20039;-84
2023/08/25 07:57:46;;;;;;;7.18;3.75;;;;;;;29.25;86.91;94487.75;4922191;29;20039;-85
2023/08/25 08:00:15;;;;;;;11.45;4.00;;;;;;;29.39;75.93;94487.75;4922447;29;20357;-85
2023/08/25 08:02:48;;;;;;;10.95;4.47;;;;;;;29.52;75.56;94482.00;4923038;29;20040;-85
2023/08/25 08:05:15;;;;;;;13.10;4.13;;;;;;;29.47;69.00;94473.16;4922530;29;20039;-84
2023/08/25 08:07:42;;;;;;;8.50;3.80;;;;;;;29.69;67.70;94481.22;4922541;29;20430;-84
2023/08/25 08:10:08;;;;;;;14.20;4.30;;;;;;;29.77;64.33;94482.75;4922593;29;20042;-85
2023/08/25 08:12:34;;;;;;;9.18;3.85;;;;;;;29.89;62.33;94475.41;4906606;29;20036;-84
2023/08/25 08:14:59;;;;;;;13.10;4.07;;;;;;;30.04;65.66;94482.31;4922261;29;20043;-86
2023/08/25 08:17:25;;;;;;;11.65;4.35;;;;;;;30.15;61.81;94478.81;4922328;29;20039;-85
2023/08/25 08:19:51;;;;;;;8.75;3.90;;;;;;;30.19;75.52;94477.63;4922431;29;20040;-85
2023/08/25 08:22:17;;;;;;;7.75;4.45;;;;;;;30.03;76.96;94483.50;4922649;29;20072;-85
2023/08/25 08:24:49;;;;;;;10.13;4.18;;;;;;;30.27;68.80;94477.63;4942120;29;20095;-84
2023/08/25 08:27:15;;;;;;;16.80;5.17;;;;;;;30.39;62.76;94476.41;4942776;29;20035;-83
2023/08/25 08:29:42;;;;;;;11.90;4.57;;;;;;;30.31;54.10;94472.97;4910274;29;20032;-85
2023/08/25 08:32:08;;;;;;;11.07;4.43;;;;;;;30.39;55.54;94477.19;4910290;29;20442;-84
2023/08/25 08:34:33;;;;;;;17.35;4.95;;;;;;;30.57;59.97;94474.41;4910151;29;20035;-85
2023/08/25 08:36:59;;;;;;;9.30;4.15;;;;;;;30.65;62.06;94468.97;4942863;29;20046;-85
2023/08/25 08:39:24;;;;;;;9.18;4.03;;;;;;;30.83;60.84;94471.56;4925749;29;20071;-84
2023/08/25 08:41:52;;;;;;;7.70;4.38;;;;;;;31.00;60.21;94475.31;4942879;29;20466;-85
2023/08/25 08:44:18;;;;;;;10.45;3.75;;;;;;;31.08;63.64;94474.09;4925603;29;20036;-86
2023/08/25 08:46:48;;;;;;;9.48;4.32;;;;;;;31.13;62.68;94470.97;4925826;29;20353;-85
2023/08/25 08:49:14;;;;;;;9.57;4.18;;;;;;;31.24;62.25;94467.44;4926027;29;20043;-85
2023/08/25 08:51:41;;;;;;;7.10;3.55;;;;;;;31.35;61.19;94467.34;4925577;29;20051;-85
2023/08/25 08:54:07;;;;;;;11.85;3.97;;;;;;;31.54;57.11;94466.78;4925699;29;20040;-85
2023/08/25 08:56:33;;;;;;;13.65;4.53;;;;;;;31.54;56.73;94472.19;4925461;29;20035;-85
2023/08/25 08:58:59;;;;;;;11.32;4.10;;;;;;;31.71;57.59;94462.38;4925597;29;20086;-85
2023/08/25 09:01:25;;;;;;;12.10;4.05;;;;;;;31.77;55.13;94456.50;4942537;29;20035;-85
2023/08/25 09:03:52;;;;;;;8.35;4.50;;;;;;;31.80;56.20;94456.50;4942470;29;20044;-85
2023/08/25 09:06:19;;;;;;;6.55;4.10;;;;;;;31.93;54.79;94453.28;4925362;29;20362;-88
2023/08/25 09:08:46;;;;;;;19.65;4.80;;;;;;;31.78;53.76;94452.63;4925328;29;20027;-86
2023/08/25 09:11:12;;;;;;;7.75;4.20;;;;;;;31.94;54.59;94463.72;4925264;29;20040;-88
2023/08/25 09:13:37;;;;;;;11.57;4.53;;;;;;;31.98;52.02;94460.97;4925205;29;20043;-88
2023/08/25 09:16:11;;;;;;;16.23;4.10;;;;;;;32.15;57.54;94464.66;4925576;29;20035;-88
2023/08/25 09:18:37;;;;;;;11.52;4.07;;;;;;;31.92;51.38;94462.56;4942195;29;20031;-86
2023/08/25 09:21:15;;;;;;;11.77;4.60;;;;;;;31.96;51.19;94455.19;4909370;29;20393;-87
2023/08/25 09:23:55;;;;;;;10.05;4.25;;;;;;;32.15;52.74;94453.81;4925340;29;20032;-88
2023/08/25 09:26:20;;;;;;;7.50;4.05;;;;;;;32.30;53.45;94457.09;4925127;29;20349;-88
2023/08/25 09:28:46;;;;;;;12.10;4.88;;;;;;;32.32;54.13;94451.28;4924948;29;20027;-87
2023/08/25 09:31:31;;;;;;;9.57;4.45;;;;;;;32.46;52.89;94466.63;4909246;29;20035;-89
2023/08/25 09:34:02;;;;;;;13.40;4.93;;;;;;;32.41;62.21;94463.19;4925266;29;20039;-84
2023/08/25 09:36:28;;;;;;;13.05;4.60;;;;;;;32.25;50.86;94468.41;4923655;29;20046;-87
2023/08/25 09:38:54;;;;;;;11.57;4.88;;;;;;;32.29;49.61;94466.41;4941804;29;20032;-86
2023/08/25 09:41:28;;;;;;;13.30;4.78;;;;;;;32.00;48.23;94466.75;4924750;29;20063;-85
2023/08/25 09:44:01;;;;;;;10.52;5.22;;;;;;;31.81;48.41;94458.03;4924968;29;20050;-85
2023/08/25 09:46:27;;;;;;;9.40;4.38;;;;;;;31.98;49.46;94458.25;4924773;29;20126;-88
2023/08/25 09:49:00;;;;;;;8.48;4.57;;;;;;;32.12;50.06;94460.00;4908544;29;20081;-87
2023/08/25 09:51:27;;;;;;;7.22;4.55;;;;;;;32.20;50.06;94461.47;4924732;29;20031;-88
2023/08/25 09:53:53;;;;;;;11.40;4.55;;;;;;;32.29;50.38;94464.47;4925017;29;20034;-88
2023/08/25 09:56:18;;;;;;;16.73;4.90;;;;;;;32.43;49.42;94468.97;4908980;29;20059;-88
2023/08/25 09:58:44;;;;;;;9.50;4.75;;;;;;;32.51;49.59;94466.19;4924691;29;20473;-88
2023/08/25 10:01:10;;;;;;;9.48;4.82;;;;;;;32.53;49.63;94469.25;4941721;29;20035;-88
2023/08/25 10:03:36;;;;;;;11.00;4.60;;;;;;;32.54;51.39;94476.94;4924668;29;20031;-87
2023/08/25 10:06:03;;;;;;;15.85;4.65;;;;;;;32.60;50.82;94465.66;4924681;29;20500;-86
2023/08/25 10:08:30;;;;;;;11.88;5.10;;;;;;;32.74;48.71;94465.47;4924013;29;20051;-87
2023/08/25 10:10:56;;;;;;;10.13;4.50;;;;;;;32.81;49.22;94459.94;4908568;29;20455;-87
2023/08/25 10:13:23;;;;;;;10.27;4.75;;;;;;;32.82;48.34;94463.41;4941522;29;20047;-87
2023/08/25 10:15:50;;;;;;;8.30;4.53;;;;;;;32.96;47.60;94462.47;4908676;29;20353;-89
2023/08/25 10:18:15;;;;;;;12.32;4.78;;;;;;;32.79;49.16;94459.56;4940936;29;20047;-87
2023/08/25 10:20:42;;;;;;;13.98;4.20;;;;;;;32.98;48.29;94454.66;4924449;29;20170;-88
2023/08/25 10:23:09;;;;;;;18.77;5.18;;;;;;;32.79;48.00;94459.56;4923997;29;20062;-86
2023/08/25 10:25:35;;;;;;;18.73;4.68;;;;;;;32.89;47.87;94452.44;4923789;29;20401;-89
2023/08/25 10:28:03;;;;;;;11.27;4.93;;;;;;;32.72;47.19;94455.03;4923909;29;20345;-86
2023/08/25 10:30:29;;;;;;;12.60;4.47;;;;;;;32.68;47.32;94448.09;4923926;29;20036;-87
2023/08/25 10:33:09;;;;;;;10.40;4.47;;;;;;;32.75;48.27;94449.94;4924144;29;20635;-86
2023/08/25 10:35:45;;;;;;;13.82;4.75;;;;;;;32.93;46.74;94449.72;4923680;29;20035;-88
2023/08/25 10:38:35;;;;;;;11.70;5.05;;;;;;;33.06;46.89;94450.69;4924120;29;20044;-88
2023/08/25 10:41:11;;;;;;;8.25;4.68;;;;;;;32.92;46.12;94450.91;4924001;29;20032;-86
2023/08/25 10:43:37;;;;;;;17.20;4.95;;;;;;;32.89;45.21;94440.84;4907860;29;20034;-88
2023/08/25 10:46:09;;;;;;;10.00;4.25;;;;;;;33.03;46.13;94446.09;4923356;29;20036;-86
2023/08/25 10:48:37;;;;;;;10.98;4.90;;;;;;;33.09;46.31;94440.97;4923257;29;20040;-86
2023/08/25 10:51:17;;;;;;;10.07;4.70;;;;;;;33.08;45.41;94434.75;4907774;29;20040;-88
2023/08/25 10:53:44;;;;;;;11.15;4.38;;;;;;;33.30;46.20;94434.41;4943153;29;20024;-87
2023/08/25 10:56:15;;;;;;;14.27;4.60;;;;;;;33.55;44.92;94435.94;4959282;29;20122;-87
2023/08/25 10:58:41;;;;;;;6.93;4.25;;;;;;;33.63;44.86;94434.63;4926459;29;20027;-87
2023/08/25 11:01:06;;;;;;;17.67;5.18;;;;;;;33.77;44.15;94430.88;4942673;29;20027;-88
2023/08/25 11:04:01;;;;;;;9.32;4.40;;;;;;;33.70;45.24;94429.06;4942742;29;20038;-87
2023/08/25 11:06:49;;;;;;;7.82;3.95;;;;;;;33.80;47.23;94421.91;4926612;29;20087;-87
2023/08/25 11:09:17;;;;;;;7.95;4.80;;;;;;;34.07;43.96;94417.53;4959390;29;20114;-87
2023/08/25 11:11:43;;;;;;;8.57;4.18;;;;;;;33.82;42.15;94429.63;4959279;29;20487;-87
2023/08/25 11:14:09;;;;;;;12.00;4.47;;;;;;;33.98;43.17;94427.00;4942553;29;20043;-87
2023/08/25 11:16:38;;;;;;;10.27;4.35;;;;;;;33.83;42.91;94425.72;4942144;29;20042;-87
2023/08/25 11:19:05;;;;;;;10.50;4.80;;;;;;;33.46;44.40;94422.16;4942080;29;20042;-87
2023/08/25 11:21:31;;;;;;;9.80;4.50;;;;;;;33.44;45.41;94424.50;4942699;29;20437;-88
2023/08/25 11:23:56;;;;;;;10.25;4.65;;;;;;;33.30;46.29;94420.84;4926531;29;20027;-88
2023/08/25 11:26:22;;;;;;;11.27;4.45;;;;;;;33.49;47.01;94411.19;4942034;29;20038;-88
2023/08/25 11:28:51;;;;;;;10.55;4.95;;;;;;;33.59;46.16;94409.50;4926367;29;20546;-87
2023/08/25 11:31:19;;;;;;;9.20;4.50;;;;;;;33.55;44.24;94409.56;4939918;29;20482;-88
2023/08/25 11:33:45;;;;;;;10.27;4.60;;;;;;;33.34;46.89;94407.97;4941851;29;20035;-88
2023/08/25 11:36:15;;;;;;;15.63;4.75;;;;;;;33.35;45.56;94404.06;4942220;29;20429;-88